createdAt,value
2019-05-02T00:01:09.548Z,11.33
2019-05-02T00:03:42.912Z,11.20
2019-05-02T00:06:15.344Z,12.07
2019-05-02T00:08:47.949Z,12.17
2019-05-02T00:11:20.575Z,11.03
2019-05-02T00:13:53.407Z,12.47
2019-05-02T00:16:26.628Z,12.30
2019-05-02T00:19:00.013Z,12.33
2019-05-02T00:21:32.902Z,12.50
2019-05-02T00:24:08.830Z,12.67
2019-05-02T00:26:41.871Z,12.37
2019-05-02T00:29:14.430Z,12.53
2019-05-02T00:31:48.852Z,13.57
2019-05-02T00:34:21.233Z,12.13
2019-05-02T00:36:53.377Z,12.87
2019-05-02T00:39:25.423Z,12.67
2019-05-02T00:41:57.560Z,13.73
2019-05-02T00:44:29.585Z,13.67
2019-05-02T00:47:10.971Z,12.97
2019-05-02T00:49:43.439Z,13.20
2019-05-02T00:52:15.686Z,12.63
2019-05-02T00:54:47.901Z,14.10
2019-05-02T00:57:21.753Z,13.53
2019-05-02T00:59:53.845Z,13.43
2019-05-02T01:02:40.574Z,12.87
2019-05-02T01:05:33.711Z,13.20
2019-05-02T01:08:05.532Z,14.07
2019-05-02T01:10:37.657Z,13.97
2019-05-02T01:13:09.757Z,14.07
2019-05-02T01:15:44.155Z,13.73
2019-05-02T01:18:16.044Z,14.70
2019-05-02T01:20:48.141Z,13.83
2019-05-02T01:23:22.990Z,13.83
2019-05-02T01:25:54.590Z,13.80
2019-05-02T01:28:44.067Z,14.80
2019-05-02T01:31:23.554Z,15.13
2019-05-02T01:34:26.559Z,14.63
2019-05-02T01:37:07.329Z,14.80
2019-05-02T01:39:42.856Z,15.53
2019-05-02T01:42:13.961Z,16.23
2019-05-02T01:44:45.960Z,16.57
2019-05-02T01:47:18.149Z,15.70
2019-05-02T01:49:52.022Z,15.90
2019-05-02T01:52:24.958Z,15.60
2019-05-02T01:54:57.310Z,15.53
2019-05-02T01:57:29.775Z,15.70
2019-05-02T02:00:04.179Z,16.03
2019-05-02T02:02:35.743Z,16.87
2019-05-02T02:05:10.223Z,17.67
2019-05-02T02:07:42.315Z,17.23
2019-05-02T02:10:19.845Z,16.87
2019-05-02T02:13:02.812Z,17.67
2019-05-02T02:15:25.174Z,17.00
2019-05-02T02:17:56.819Z,17.43
2019-05-02T02:20:31.726Z,17.20
2019-05-02T02:23:21.196Z,17.50
2019-05-02T02:26:06.734Z,17.73
2019-05-02T02:28:38.413Z,16.90
2019-05-02T02:31:10.496Z,17.37
2019-05-02T02:33:47.647Z,17.33
2019-05-02T02:36:16.381Z,17.77
2019-05-02T02:38:48.945Z,18.20
2019-05-02T02:41:21.344Z,17.87
2019-05-02T02:44:21.471Z,17.70
2019-05-02T02:46:54.973Z,17.97
2019-05-02T02:49:27.262Z,17.93
2019-05-02T02:52:04.768Z,18.83
2019-05-02T02:54:36.697Z,17.87
2019-05-02T02:57:07.048Z,18.80
2019-05-02T02:59:39.091Z,18.77
2019-05-02T03:02:12.147Z,17.67
2019-05-02T03:04:46.361Z,18.53
2019-05-02T03:07:25.757Z,18.77
2019-05-02T03:09:52.335Z,18.83
2019-05-02T03:12:43.156Z,19.60
2019-05-02T03:15:21.086Z,18.83
2019-05-02T03:17:52.487Z,18.37
2019-05-02T03:20:24.528Z,20.00
2019-05-02T03:22:57.096Z,19.13
2019-05-02T03:25:50.803Z,19.63
2019-05-02T03:28:18.585Z,19.03
2019-05-02T03:30:48.580Z,19.43
2019-05-02T03:33:20.968Z,19.30
2019-05-02T03:35:53.818Z,18.20
2019-05-02T03:38:32.368Z,18.10
2019-05-02T03:41:00.537Z,17.50
2019-05-02T03:43:32.796Z,18.33
2019-05-02T03:46:04.862Z,19.30
2019-05-02T03:48:37.106Z,19.50
2019-05-02T03:51:19.237Z,18.13
2019-05-02T03:53:43.441Z,19.20
2019-05-02T03:56:15.630Z,18.03
2019-05-02T03:58:55.769Z,20.23
2019-05-02T04:01:22.604Z,20.10
2019-05-02T04:03:56.544Z,19.10
2019-05-02T04:06:28.626Z,22.87
2019-05-02T04:09:02.014Z,19.83
2019-05-02T04:11:39.072Z,19.27
2019-05-02T04:14:16.009Z,20.50
2019-05-02T04:16:48.570Z,21.17
2019-05-02T04:19:18.240Z,21.13
2019-05-02T04:21:54.843Z,19.33
2019-05-02T04:24:26.298Z,19.03
2019-05-02T04:26:58.669Z,19.13
2019-05-02T04:29:32.849Z,19.10
2019-05-02T04:32:11.818Z,19.20
2019-05-02T04:34:39.307Z,20.57
2019-05-02T04:37:12.030Z,19.67
2019-05-02T04:39:44.707Z,18.77
2019-05-02T04:42:21.998Z,18.60
2019-05-02T04:45:11.897Z,18.37
2019-05-02T04:47:28.886Z,18.63
2019-05-02T04:49:59.858Z,18.20
2019-05-02T04:52:40.775Z,18.30
2019-05-02T04:55:14.805Z,17.67
2019-05-02T04:57:47.377Z,18.20
2019-05-02T05:00:14.344Z,19.27
2019-05-02T05:02:48.394Z,17.37
2019-05-02T05:05:25.801Z,18.53
2019-05-02T05:07:54.147Z,17.67
2019-05-02T05:10:27.670Z,17.47
2019-05-02T05:13:00.408Z,17.70
2019-05-02T05:15:40.160Z,18.40
2019-05-02T05:18:10.620Z,17.03
2019-05-02T05:20:45.921Z,17.27
2019-05-02T05:23:21.467Z,16.20
2019-05-02T05:26:03.523Z,16.67
2019-05-02T05:28:35.011Z,16.97
2019-05-02T05:31:07.678Z,17.07
2019-05-02T05:33:39.634Z,16.17
2019-05-02T05:36:11.763Z,16.33
2019-05-02T05:38:43.835Z,16.87
2019-05-02T05:41:20.187Z,15.23
2019-05-02T05:43:53.503Z,16.47
2019-05-02T05:46:23.474Z,15.93
2019-05-02T05:48:55.525Z,15.00
2019-05-02T05:51:27.886Z,15.10
2019-05-02T05:54:03.177Z,15.90
2019-05-02T05:56:39.733Z,15.90
2019-05-02T05:59:07.918Z,15.57
2019-05-02T06:01:41.886Z,17.33
2019-05-02T06:04:18.453Z,15.20
2019-05-02T06:06:48.083Z,16.65
2019-05-02T06:09:20.342Z,15.17
2019-05-02T06:11:55.346Z,17.37
2019-05-02T06:14:26.434Z,17.93
2019-05-02T06:16:58.709Z,15.90
2019-05-02T06:19:32.055Z,15.80
2019-05-02T06:22:04.291Z,14.35
2019-05-02T06:24:36.650Z,15.70
2019-05-02T06:27:08.796Z,16.20
2019-05-02T06:29:40.888Z,18.13
2019-05-02T06:32:13.989Z,16.10
2019-05-02T06:34:47.669Z,17.12
2019-05-02T06:37:19.767Z,15.45
2019-05-02T06:39:51.766Z,16.27
2019-05-02T06:42:27.669Z,16.57
2019-05-02T06:44:59.844Z,15.38
2019-05-02T06:47:36.062Z,15.38
2019-05-02T06:50:08.317Z,16.60
2019-05-02T06:52:40.399Z,15.70
2019-05-02T06:55:13.159Z,16.23
2019-05-02T06:57:45.286Z,16.75
2019-05-02T07:00:18.212Z,17.20
2019-05-02T07:02:50.424Z,16.05
2019-05-02T07:05:27.175Z,17.20
2019-05-02T07:07:56.654Z,15.80
2019-05-02T07:10:37.834Z,14.73
2019-05-02T07:13:10.716Z,14.50
2019-05-02T07:15:58.635Z,16.40
2019-05-02T07:18:34.009Z,15.70
2019-05-02T07:21:12.115Z,15.70
2019-05-02T07:23:41.796Z,14.98
2019-05-02T07:26:15.599Z,14.60
2019-05-02T07:28:48.118Z,16.15
2019-05-02T07:31:20.197Z,14.95
2019-05-02T07:33:52.352Z,15.90
2019-05-02T07:36:24.629Z,14.85
2019-05-02T07:38:57.489Z,13.48
2019-05-02T07:41:30.627Z,14.13
2019-05-02T07:44:04.426Z,14.15
2019-05-02T07:46:36.795Z,14.50
2019-05-02T07:49:08.984Z,13.13
2019-05-02T07:51:41.197Z,13.65
2019-05-02T07:54:13.460Z,12.68
2019-05-02T07:56:48.666Z,13.48
2019-05-02T07:59:23.282Z,11.93
2019-05-02T08:01:53.533Z,13.25
2019-05-02T08:04:25.672Z,13.53
2019-05-02T08:06:57.665Z,12.73
2019-05-02T08:09:29.803Z,13.58
2019-05-02T08:12:01.940Z,12.80
2019-05-02T08:14:34.743Z,13.38
2019-05-02T08:17:16.117Z,14.80
2019-05-02T08:19:43.182Z,13.60
2019-05-02T08:22:15.484Z,12.13
2019-05-02T08:24:47.614Z,12.82
2019-05-02T08:27:41.241Z,13.88
2019-05-02T08:30:25.190Z,13.62
2019-05-02T08:32:57.460Z,11.93
2019-05-02T08:35:29.571Z,12.98
2019-05-02T08:38:01.680Z,12.60
2019-05-02T08:40:33.760Z,12.68
2019-05-02T08:43:09.274Z,13.53
2019-05-02T08:45:39.752Z,13.00
2019-05-02T08:48:11.817Z,13.90
2019-05-02T08:50:43.871Z,13.30
2019-05-02T08:53:19.970Z,13.78
2019-05-02T08:55:49.798Z,14.70
2019-05-02T08:58:21.915Z,16.35
2019-05-02T09:00:54.019Z,13.95
2019-05-02T09:03:26.109Z,14.78
2019-05-02T09:06:05.523Z,14.28
2019-05-02T09:08:31.993Z,15.35
2019-05-02T09:11:04.151Z,14.55
2019-05-02T09:13:36.215Z,15.35
2019-05-02T09:16:08.273Z,15.00
2019-05-02T09:18:50.052Z,12.63
2019-05-02T09:21:14.092Z,14.83
2019-05-02T09:23:46.194Z,13.88
2019-05-02T09:26:31.966Z,14.98
2019-05-02T09:28:56.327Z,14.40
2019-05-02T09:31:26.049Z,12.15
2019-05-02T09:33:58.212Z,12.50
2019-05-02T09:36:32.181Z,13.88
2019-05-02T09:39:06.197Z,13.48
2019-05-02T09:41:38.259Z,10.23
2019-05-02T09:44:14.677Z,9.65
2019-05-02T09:47:03.445Z,9.40
2019-05-02T09:49:49.060Z,8.28
2019-05-02T09:52:22.275Z,8.65
2019-05-02T09:54:54.443Z,8.90
2019-05-02T09:57:26.510Z,9.15
2019-05-02T09:59:58.598Z,8.88
2019-05-02T10:02:32.438Z,9.48
2019-05-02T10:05:04.535Z,8.48
2019-05-02T10:07:36.681Z,8.63
2019-05-02T10:10:12.589Z,9.43
2019-05-02T10:12:44.776Z,9.35
2019-05-02T10:15:19.533Z,8.35
2019-05-02T10:17:52.019Z,8.63
2019-05-02T10:20:34.182Z,9.03
2019-05-02T10:22:58.213Z,8.28
2019-05-02T10:25:38.349Z,9.28
2019-05-02T10:28:04.540Z,8.03
2019-05-02T10:30:37.514Z,9.23
2019-05-02T10:33:09.707Z,9.18
2019-05-02T10:35:43.696Z,9.53
2019-05-02T10:38:19.438Z,9.45
2019-05-02T10:40:54.556Z,9.05
2019-05-02T10:43:23.682Z,9.48
2019-05-02T10:46:01.841Z,9.20
2019-05-02T10:48:35.642Z,8.05
2019-05-02T10:51:26.156Z,8.80
2019-05-02T10:53:58.474Z,9.53
2019-05-02T10:56:32.441Z,10.13
2019-05-02T10:59:05.076Z,9.38
2019-05-02T11:02:07.044Z,9.05
2019-05-02T11:04:43.491Z,9.68
2019-05-02T11:07:16.958Z,10.65
2019-05-02T11:09:49.384Z,10.40
2019-05-02T11:12:41.869Z,10.88
2019-05-02T11:15:32.581Z,8.70
2019-05-02T11:18:05.336Z,8.43
2019-05-02T11:20:37.676Z,8.68
2019-05-02T11:23:09.764Z,9.43
2019-05-02T11:25:42.199Z,8.40
2019-05-02T11:28:14.716Z,8.40
2019-05-02T11:30:46.924Z,8.25
2019-05-02T11:33:19.218Z,8.73
2019-05-02T11:35:53.520Z,7.70
2019-05-02T11:38:25.982Z,7.80
2019-05-02T11:40:58.362Z,8.98
2019-05-02T11:43:32.510Z,10.32
2019-05-02T11:46:07.313Z,8.10
2019-05-02T11:48:38.184Z,8.05
2019-05-02T11:51:12.715Z,8.88
2019-05-02T11:53:44.709Z,8.75
2019-05-02T11:56:16.792Z,8.00
2019-05-02T11:58:50.253Z,7.25
2019-05-02T12:01:35.524Z,8.65
2019-05-02T12:03:56.809Z,7.20
2019-05-02T12:06:29.284Z,7.62
2019-05-02T12:09:02.006Z,7.70
2019-05-02T12:11:34.571Z,7.55
2019-05-02T12:14:07.015Z,7.10
2019-05-02T12:16:39.023Z,7.62
2019-05-02T12:19:14.436Z,6.53
2019-05-02T12:21:55.787Z,6.47
2019-05-02T12:24:28.000Z,6.30
2019-05-02T12:27:00.016Z,6.30
2019-05-02T12:29:33.485Z,6.58
2019-05-02T12:32:05.764Z,6.35
2019-05-02T12:34:37.799Z,5.60
2019-05-02T12:37:09.961Z,5.58
2019-05-02T12:39:42.610Z,5.25
2019-05-02T12:42:15.140Z,5.30
2019-05-02T12:44:47.576Z,5.95
2019-05-02T12:47:19.563Z,5.92
2019-05-02T12:49:52.033Z,6.05
2019-05-02T12:52:24.613Z,6.28
2019-05-02T12:54:56.672Z,6.03
2019-05-02T12:57:28.856Z,6.03
2019-05-02T13:00:01.840Z,5.28
2019-05-02T13:02:45.858Z,5.25
2019-05-02T13:05:18.156Z,5.47
2019-05-02T13:08:02.525Z,5.85
2019-05-02T13:10:54.059Z,5.95
2019-05-02T13:13:25.865Z,5.08
2019-05-02T13:16:00.839Z,4.70
2019-05-02T13:18:36.532Z,4.67
2019-05-02T13:21:07.990Z,5.22
2019-05-02T13:24:07.241Z,4.87
2019-05-02T13:26:37.129Z,8.80
2019-05-02T13:29:11.719Z,5.12
2019-05-02T13:31:53.147Z,9.60
2019-05-02T13:34:32.176Z,7.42
2019-05-02T13:37:05.170Z,6.87
2019-05-02T13:40:17.026Z,5.60
2019-05-02T13:42:59.388Z,8.23
2019-05-02T13:45:49.073Z,6.20
2019-05-02T13:48:21.816Z,7.80
2019-05-02T13:50:54.002Z,8.65
2019-05-02T13:53:28.193Z,6.53
2019-05-02T13:56:44.707Z,9.35
2019-05-02T13:59:16.320Z,8.58
2019-05-02T14:02:08.613Z,5.12
2019-05-02T14:04:41.522Z,4.83
2019-05-02T14:07:17.503Z,6.20
2019-05-02T14:09:57.962Z,5.62
2019-05-02T14:12:57.820Z,5.40
2019-05-02T14:15:41.955Z,5.10
2019-05-02T14:18:13.846Z,5.40
2019-05-02T14:20:45.916Z,4.80
2019-05-02T14:23:18.237Z,6.05
2019-05-02T14:26:02.091Z,5.35
2019-05-02T14:28:36.428Z,5.20
2019-05-02T14:31:08.988Z,5.53
2019-05-02T14:33:42.593Z,6.47
2019-05-02T14:36:15.169Z,6.20
2019-05-02T14:38:47.301Z,5.30
2019-05-02T14:41:38.935Z,5.05
2019-05-02T14:44:04.712Z,5.85
2019-05-02T14:46:39.277Z,5.15
2019-05-02T14:49:12.043Z,4.90
2019-05-02T14:51:44.336Z,4.72
2019-05-02T14:54:16.966Z,4.55
2019-05-02T14:57:03.016Z,4.65
2019-05-02T14:59:35.200Z,5.15
2019-05-02T15:02:13.105Z,5.08
2019-05-02T15:04:48.853Z,6.08
2019-05-02T15:07:24.836Z,4.95
2019-05-02T15:09:57.188Z,6.65
2019-05-02T15:12:28.005Z,5.45
2019-05-02T15:15:00.045Z,5.55
2019-05-02T15:17:36.318Z,5.37
2019-05-02T15:20:08.506Z,4.93
2019-05-02T15:22:42.459Z,5.08
2019-05-02T15:25:17.786Z,5.60
2019-05-02T15:28:02.463Z,5.35
2019-05-02T15:30:36.986Z,4.97
2019-05-02T15:33:12.538Z,5.00
2019-05-02T15:35:57.309Z,5.62
2019-05-02T15:38:48.591Z,5.00
2019-05-02T15:41:21.911Z,6.75
2019-05-02T15:43:54.173Z,6.10
2019-05-02T15:46:28.151Z,11.83
2019-05-02T15:49:01.865Z,5.90
2019-05-02T15:51:38.048Z,4.90
2019-05-02T15:54:08.819Z,5.92
2019-05-02T15:57:00.834Z,6.83
2019-05-02T15:59:42.431Z,5.62
2019-05-02T16:02:12.927Z,5.33
2019-05-02T16:04:46.916Z,6.60
2019-05-02T16:07:19.367Z,8.20
2019-05-02T16:09:56.367Z,6.20
2019-05-02T16:12:27.190Z,5.78
2019-05-02T16:14:59.806Z,5.53
2019-05-02T16:17:33.426Z,5.33
2019-05-02T16:20:13.407Z,5.97
2019-05-02T16:22:49.585Z,4.92
2019-05-02T16:25:24.325Z,7.30
2019-05-02T16:27:57.495Z,4.90
2019-05-02T16:30:28.119Z,5.92
2019-05-02T16:33:02.699Z,20.72
2019-05-02T16:35:35.897Z,13.45
2019-05-02T16:38:07.982Z,13.30
2019-05-02T16:40:41.853Z,5.35
2019-05-02T16:43:14.159Z,4.83
2019-05-02T16:45:54.229Z,6.42
2019-05-02T16:48:39.254Z,5.03
2019-05-02T16:51:27.714Z,5.72
2019-05-02T16:53:45.808Z,5.40
2019-05-02T16:56:18.026Z,5.28
2019-05-02T16:58:52.110Z,7.35
2019-05-02T17:01:27.451Z,5.42
2019-05-02T17:04:28.367Z,5.80
2019-05-02T17:07:05.803Z,4.62
2019-05-02T17:09:45.515Z,4.60
2019-05-02T17:12:17.827Z,4.87
2019-05-02T17:15:07.890Z,5.10
2019-05-02T17:17:39.928Z,4.78
2019-05-02T17:20:16.534Z,4.90
2019-05-02T17:22:50.192Z,4.72
2019-05-02T17:25:20.332Z,5.47
2019-05-02T17:27:53.526Z,6.58
2019-05-02T17:30:33.657Z,5.60
2019-05-02T17:33:01.893Z,4.73
2019-05-02T17:35:34.446Z,4.42
2019-05-02T17:38:06.950Z,4.37
2019-05-02T17:40:39.111Z,4.60
2019-05-02T17:43:11.311Z,4.60
2019-05-02T17:45:43.772Z,12.80
2019-05-02T17:48:17.819Z,5.70
2019-05-02T17:51:12.416Z,41.60
2019-05-02T17:53:49.610Z,7.83
2019-05-02T17:56:22.528Z,4.90
2019-05-02T17:58:58.164Z,4.50
2019-05-02T18:01:37.609Z,5.22
2019-05-02T18:04:12.532Z,4.70
2019-05-02T18:06:46.934Z,5.40
2019-05-02T18:09:17.893Z,4.87
2019-05-02T18:11:51.692Z,5.70
2019-05-02T18:14:24.317Z,5.57
2019-05-02T18:16:57.461Z,5.10
2019-05-02T18:19:31.592Z,4.90
2019-05-02T18:22:07.131Z,5.13
2019-05-02T18:24:42.799Z,14.73
2019-05-02T18:27:12.870Z,19.37
2019-05-02T18:29:45.798Z,5.67
2019-05-02T18:32:22.790Z,5.00
2019-05-02T18:34:52.157Z,5.37
2019-05-02T18:37:25.793Z,5.03
2019-05-02T18:39:57.918Z,5.37
2019-05-02T18:42:31.676Z,5.07
2019-05-02T18:45:08.395Z,4.63
2019-05-02T18:47:42.249Z,4.30
2019-05-02T18:50:36.802Z,4.57
2019-05-02T18:53:13.751Z,4.50
2019-05-02T18:55:46.419Z,4.07
2019-05-02T18:58:19.131Z,4.27
2019-05-02T19:00:52.109Z,4.80
2019-05-02T19:03:24.932Z,4.80
2019-05-02T19:05:58.509Z,4.00
2019-05-02T19:08:45.401Z,4.40
2019-05-02T19:11:12.172Z,7.73
2019-05-02T19:13:44.474Z,9.40
2019-05-02T19:16:19.304Z,7.53
2019-05-02T19:18:54.444Z,7.20
2019-05-02T19:21:26.530Z,6.80
2019-05-02T19:23:59.029Z,6.57
2019-05-02T19:26:32.597Z,6.67
2019-05-02T19:29:17.346Z,7.00
2019-05-02T19:31:52.724Z,6.87
2019-05-02T19:34:27.004Z,6.93
2019-05-02T19:37:03.029Z,8.10
2019-05-02T19:39:39.076Z,8.33
2019-05-02T19:42:12.264Z,8.43
2019-05-02T19:44:45.196Z,8.93
2019-05-02T19:47:17.792Z,8.33
2019-05-02T19:49:52.392Z,9.97
2019-05-02T19:52:28.611Z,8.60
2019-05-02T19:54:59.062Z,7.97
2019-05-02T19:57:32.396Z,6.40
2019-05-02T20:00:06.633Z,6.30
2019-05-02T20:02:42.333Z,4.73
2019-05-02T20:05:16.507Z,4.57
2019-05-02T20:07:47.730Z,3.83
2019-05-02T20:10:20.211Z,3.97
2019-05-02T20:12:52.901Z,4.57
2019-05-02T20:15:28.948Z,3.90
2019-05-02T20:18:04.715Z,5.00
2019-05-02T20:20:55.836Z,5.47
2019-05-02T20:23:31.388Z,5.40
2019-05-02T20:26:02.107Z,5.33
2019-05-02T20:28:34.406Z,5.03
2019-05-02T20:31:07.698Z,4.87
2019-05-02T20:33:40.298Z,5.70
2019-05-02T20:36:12.994Z,5.10
2019-05-02T20:38:45.324Z,5.10
2019-05-02T20:41:17.657Z,5.00
2019-05-02T20:43:51.540Z,5.43
2019-05-02T20:46:23.498Z,5.30
2019-05-02T20:48:56.013Z,5.20
2019-05-02T20:51:28.253Z,5.60
2019-05-02T20:54:01.908Z,6.07
2019-05-02T20:56:34.472Z,6.73
2019-05-02T20:59:06.819Z,6.63
2019-05-02T21:01:39.024Z,6.27
2019-05-02T21:04:12.079Z,6.67
2019-05-02T21:06:53.805Z,7.40
2019-05-02T21:09:53.794Z,6.07
2019-05-02T21:12:26.127Z,14.37
2019-05-02T21:14:58.402Z,7.03
2019-05-02T21:17:32.638Z,11.00
2019-05-02T21:20:04.643Z,7.80
2019-05-02T21:22:38.216Z,4.23
2019-05-02T21:25:13.032Z,8.83
2019-05-02T21:27:45.532Z,4.67
2019-05-02T21:30:24.482Z,3.70
2019-05-02T21:32:56.637Z,6.20
2019-05-02T21:35:29.317Z,6.10
2019-05-02T21:38:01.567Z,4.43
2019-05-02T21:40:34.200Z,4.33
2019-05-02T21:43:06.548Z,4.30
2019-05-02T21:45:38.884Z,4.03
2019-05-02T21:48:11.108Z,4.20
2019-05-02T21:50:51.575Z,4.00
2019-05-02T21:53:30.379Z,4.70
2019-05-02T21:56:08.522Z,4.60
2019-05-02T21:58:42.821Z,4.30
2019-05-02T22:01:15.242Z,3.90
2019-05-02T22:03:47.353Z,3.37
2019-05-02T22:06:19.504Z,4.50
2019-05-02T22:08:52.338Z,3.60
2019-05-02T22:11:24.632Z,4.33
2019-05-02T22:13:57.028Z,4.50
2019-05-02T22:16:29.183Z,4.17
2019-05-02T22:19:02.903Z,3.77
2019-05-02T22:21:35.344Z,4.47
2019-05-02T22:24:11.496Z,3.50
2019-05-02T22:26:43.445Z,4.37
2019-05-02T22:29:15.340Z,4.27
2019-05-02T22:31:47.392Z,4.23
2019-05-02T22:34:32.682Z,3.90
2019-05-02T22:37:06.533Z,3.40
2019-05-02T22:39:55.391Z,3.73
2019-05-02T22:42:27.668Z,3.70
2019-05-02T22:45:12.532Z,4.03
2019-05-02T22:47:44.892Z,4.50
2019-05-02T22:50:17.199Z,3.73
2019-05-02T22:52:49.605Z,3.60
2019-05-02T22:55:22.589Z,3.60
2019-05-02T22:57:56.420Z,4.03
2019-05-02T23:00:29.334Z,3.77
2019-05-02T23:03:01.885Z,4.77
2019-05-02T23:05:34.399Z,4.37
2019-05-02T23:08:06.953Z,4.13
2019-05-02T23:10:39.138Z,3.50
2019-05-02T23:13:12.986Z,4.00
2019-05-02T23:15:45.395Z,3.43
2019-05-02T23:18:17.420Z,3.77
2019-05-02T23:20:49.716Z,3.60
2019-05-02T23:23:24.262Z,3.93
2019-05-02T23:26:29.389Z,3.93
2019-05-02T23:29:02.344Z,4.47
2019-05-02T23:31:34.455Z,4.13
2019-05-02T23:34:07.170Z,4.20
2019-05-02T23:36:41.631Z,4.17
2019-05-02T23:39:14.063Z,3.83
2019-05-02T23:41:46.189Z,3.80
2019-05-02T23:44:18.371Z,3.87
2019-05-02T23:46:51.560Z,4.10
2019-05-02T23:49:23.833Z,4.07
2019-05-02T23:51:55.856Z,4.17
2019-05-02T23:54:27.949Z,4.03
2019-05-02T23:56:59.981Z,4.17
2019-05-02T23:59:32.153Z,4.93
